createdAt,value
2018-04-08T00:00:30.871Z,68.00
2018-04-08T00:02:58.372Z,68.30
2018-04-08T00:10:02.115Z,68.50
2018-04-08T00:12:29.643Z,68.80
2018-04-08T00:14:57.928Z,69.40
2018-04-08T00:17:25.432Z,69.30
2018-04-08T00:19:52.942Z,69.60
2018-04-08T00:22:21.232Z,68.90
2018-04-08T00:24:48.743Z,68.90
2018-04-08T00:27:16.278Z,68.80
2018-04-08T00:29:43.778Z,69.70
2018-04-08T00:32:12.053Z,68.50
2018-04-08T00:34:39.575Z,68.40
2018-04-08T00:37:07.107Z,68.10
2018-04-08T00:39:34.631Z,68.00
2018-04-08T00:42:02.918Z,67.70
2018-04-08T00:44:31.191Z,66.70
2018-04-08T00:46:59.466Z,66.60
2018-04-08T00:49:27.747Z,66.60
2018-04-08T00:51:56.020Z,66.30
2018-04-08T00:54:30.182Z,66.30
2018-04-08T00:56:57.699Z,66.10
2018-04-08T00:59:25.970Z,65.60
2018-04-08T01:01:54.243Z,65.40
2018-04-08T01:04:22.519Z,65.40
2018-04-08T01:06:50.839Z,65.40
2018-04-08T01:09:18.356Z,65.40
2018-04-08T01:11:46.634Z,65.40
2018-04-08T01:14:14.949Z,65.80
2018-04-08T01:16:42.459Z,65.60
2018-04-08T01:19:10.747Z,66.90
2018-04-08T01:21:39.061Z,67.60
2018-04-08T01:24:06.572Z,67.50
2018-04-08T01:26:34.092Z,68.10
2018-04-08T01:29:01.611Z,68.30
2018-04-08T01:31:29.902Z,69.30
2018-04-08T01:33:57.411Z,69.30
2018-04-08T01:36:24.940Z,70.00
2018-04-08T01:38:52.455Z,70.30
2018-04-08T01:41:20.737Z,70.80
2018-04-08T01:43:49.019Z,71.30
2018-04-08T01:46:16.543Z,71.20
2018-04-08T01:48:44.056Z,71.30
2018-04-08T01:51:11.575Z,71.90
2018-04-08T01:53:39.847Z,72.10
2018-04-08T01:56:07.352Z,72.00
2018-04-08T01:58:34.878Z,72.00
2018-04-08T02:01:03.171Z,72.50
2018-04-08T02:03:30.688Z,72.50
2018-04-08T02:05:58.206Z,72.40
2018-04-08T02:08:25.724Z,72.50
2018-04-08T02:10:54.006Z,72.30
2018-04-08T02:13:22.279Z,73.00
2018-04-08T02:15:50.562Z,73.10
2018-04-08T02:18:18.840Z,73.50
2018-04-08T02:20:47.112Z,73.80
2018-04-08T02:23:15.387Z,73.70
2018-04-08T02:25:43.672Z,73.90
2018-04-08T02:28:11.943Z,74.00
2018-04-08T02:30:40.223Z,74.10
2018-04-08T02:33:08.495Z,74.00
2018-04-08T02:35:36.788Z,74.40
2018-04-08T02:38:04.299Z,74.40
2018-04-08T02:40:31.812Z,74.20
2018-04-08T02:42:59.386Z,74.30
2018-04-08T02:45:26.915Z,74.20
2018-04-08T02:47:55.192Z,74.30
2018-04-08T02:50:23.466Z,74.40
2018-04-08T02:52:51.737Z,74.30
2018-04-08T02:55:20.024Z,74.70
2018-04-08T02:57:47.535Z,74.70
2018-04-08T03:00:15.043Z,74.50
2018-04-08T03:02:42.554Z,74.50
2018-04-08T03:05:10.073Z,74.70
2018-04-08T03:07:37.582Z,74.70
2018-04-08T03:10:05.111Z,74.60
2018-04-08T03:12:32.621Z,74.80
2018-04-08T03:15:00.914Z,75.20
2018-04-08T03:17:28.440Z,75.10
2018-04-08T03:19:55.954Z,75.50
2018-04-08T03:22:23.482Z,75.50
2018-04-08T03:24:51.750Z,75.60
2018-04-08T03:27:20.035Z,75.50
2018-04-08T03:29:48.311Z,75.30
2018-04-08T03:32:16.582Z,75.50
2018-04-08T03:34:44.858Z,75.20
2018-04-08T03:37:13.135Z,75.50
2018-04-08T03:39:41.407Z,75.90
2018-04-08T03:42:09.706Z,75.70
2018-04-08T03:44:37.202Z,75.70
2018-04-08T03:47:04.716Z,75.60
2018-04-08T03:49:32.987Z,75.90
2018-04-08T03:52:01.289Z,75.60
2018-04-08T03:54:28.843Z,75.60
2018-04-08T03:56:56.356Z,75.60
2018-04-08T03:59:23.863Z,75.60
2018-04-08T04:01:51.363Z,75.40
2018-04-08T04:04:18.898Z,75.60
2018-04-08T04:06:46.410Z,75.50
2018-04-08T04:09:14.679Z,75.70
2018-04-08T04:11:42.958Z,75.60
2018-04-08T04:14:11.231Z,75.70
2018-04-08T04:16:38.748Z,75.70
2018-04-08T04:19:18.203Z,75.70
2018-04-08T04:21:57.751Z,75.80
2018-04-08T04:24:37.076Z,75.70
2018-04-08T04:27:04.595Z,75.80
2018-04-08T04:29:32.107Z,75.90
2018-04-08T04:31:59.625Z,76.20
2018-04-08T04:34:27.139Z,76.30
2018-04-08T04:36:55.419Z,76.30
2018-04-08T04:39:23.699Z,77.40
2018-04-08T04:41:51.995Z,76.50
2018-04-08T04:44:19.507Z,76.40
2018-04-08T04:46:47.023Z,76.50
2018-04-08T04:49:14.539Z,76.30
2018-04-08T04:51:42.825Z,76.60
2018-04-08T04:54:11.099Z,76.60
2018-04-08T04:56:39.381Z,76.80
2018-04-08T04:59:07.655Z,76.70
2018-04-08T05:01:35.937Z,76.80
2018-04-08T05:04:04.224Z,76.70
2018-04-08T05:06:31.810Z,76.60
2018-04-08T05:08:59.327Z,76.70
2018-04-08T05:11:27.597Z,76.40
2018-04-08T05:13:55.124Z,76.40
2018-04-08T05:16:22.656Z,76.60
2018-04-08T05:18:50.158Z,76.30
2018-04-08T05:21:17.678Z,75.90
2018-04-08T05:23:45.195Z,75.80
2018-04-08T05:26:13.480Z,75.30
2018-04-08T05:28:41.763Z,75.00
2018-04-08T05:31:09.281Z,75.00
2018-04-08T05:33:36.812Z,74.90
2018-04-08T05:36:04.316Z,75.00
2018-04-08T05:38:33.334Z,74.50
2018-04-08T05:41:00.877Z,74.50
2018-04-08T05:43:29.198Z,74.60
2018-04-08T05:45:56.723Z,74.60
2018-04-08T05:48:25.031Z,74.10
2018-04-08T05:50:52.543Z,74.20
2018-04-08T05:53:20.074Z,74.20
2018-04-08T05:55:47.585Z,73.80
2018-04-08T05:58:15.099Z,74.00
2018-04-08T06:00:42.627Z,73.90
2018-04-08T06:03:10.131Z,73.30
2018-04-08T06:05:37.651Z,72.90
2018-04-08T06:08:05.159Z,72.90
2018-04-08T06:10:33.445Z,72.70
2018-04-08T06:13:01.728Z,73.00
2018-04-08T06:15:29.993Z,73.00
2018-04-08T06:17:58.271Z,72.60
2018-04-08T06:20:27.476Z,72.60
2018-04-08T06:22:55.766Z,72.20
2018-04-08T06:25:23.283Z,72.20
2018-04-08T06:27:50.801Z,72.30
2018-04-08T06:30:18.318Z,71.90
2018-04-08T06:32:46.586Z,71.00
2018-04-08T06:35:14.123Z,71.00
2018-04-08T06:37:41.630Z,71.20
2018-04-08T06:40:09.906Z,70.60
2018-04-08T06:42:37.439Z,70.60
2018-04-08T06:45:05.739Z,70.40
2018-04-08T06:47:34.011Z,70.60
2018-04-08T06:50:02.296Z,70.40
2018-04-08T06:52:29.814Z,70.20
2018-04-08T06:54:57.345Z,70.30
2018-04-08T06:57:24.843Z,69.70
2018-04-08T06:59:52.364Z,69.60
2018-04-08T07:02:19.874Z,69.30
2018-04-08T07:04:48.158Z,68.90
2018-04-08T07:07:16.433Z,68.60
2018-04-08T07:09:44.703Z,68.70
2018-04-08T07:12:12.986Z,68.70
2018-04-08T07:14:41.267Z,67.60
2018-04-08T07:17:09.542Z,67.30
2018-04-08T07:19:37.819Z,66.90
2018-04-08T07:22:06.086Z,66.70
2018-04-08T07:24:34.385Z,66.90
2018-04-08T07:27:02.657Z,66.50
2018-04-08T07:29:30.167Z,66.50
2018-04-08T07:31:57.679Z,66.10
2018-04-08T07:34:25.203Z,65.80
2018-04-08T07:36:52.699Z,65.30
2018-04-08T07:39:20.204Z,65.20
2018-04-08T07:41:47.727Z,64.30
2018-04-08T07:44:15.241Z,65.00
2018-04-08T07:46:43.534Z,63.70
2018-04-08T07:49:11.804Z,63.40
2018-04-08T07:51:40.080Z,63.70
2018-04-08T07:54:08.355Z,63.30
2018-04-08T07:56:36.634Z,63.00
2018-04-08T07:59:04.946Z,63.00
2018-04-08T08:01:32.458Z,63.00
2018-04-08T08:04:00.747Z,62.00
2018-04-08T08:06:29.023Z,62.00
2018-04-08T08:08:57.292Z,62.20
2018-04-08T08:11:24.799Z,62.10
2018-04-08T08:13:52.338Z,61.20
2018-04-08T08:16:19.894Z,61.90
2018-04-08T08:18:47.600Z,61.20
2018-04-08T08:21:15.153Z,60.50
2018-04-08T08:23:42.701Z,59.50
2018-04-08T08:26:10.252Z,58.40
2018-04-08T08:28:37.783Z,58.50
2018-04-08T08:31:06.081Z,58.60
2018-04-08T08:33:33.594Z,58.50
2018-04-08T08:36:01.118Z,58.30
2018-04-08T08:38:28.665Z,57.40
2018-04-08T08:40:57.288Z,57.00
2018-04-08T08:43:24.830Z,56.50
2018-04-08T08:45:52.360Z,56.90
2018-04-08T08:48:19.903Z,56.60
2018-04-08T08:50:48.194Z,56.10
2018-04-08T08:53:15.714Z,56.00
2018-04-08T08:55:43.340Z,54.70
2018-04-08T08:58:10.871Z,54.90
2018-04-08T09:00:38.398Z,53.80
2018-04-08T09:03:06.721Z,55.00
2018-04-08T09:05:34.796Z,54.60
2018-04-08T09:08:02.309Z,54.20
2018-04-08T09:10:29.830Z,53.40
2018-04-08T09:12:57.350Z,53.30
2018-04-08T09:15:24.887Z,52.90
2018-04-08T09:17:53.256Z,52.50
2018-04-08T09:20:21.553Z,51.30
2018-04-08T09:23:04.736Z,52.30
2018-04-08T09:38:43.074Z,50.60
2018-04-08T09:41:11.339Z,50.60
2018-04-08T09:43:38.847Z,50.50
2018-04-08T09:46:06.383Z,51.30
2018-04-08T09:48:33.895Z,50.20
2018-04-08T09:51:01.419Z,50.70
2018-04-08T09:53:28.927Z,49.90
2018-04-08T09:55:56.426Z,49.00
2018-04-08T09:58:26.616Z,50.70
2018-04-08T10:01:08.951Z,49.00
2018-04-08T10:03:46.098Z,48.70
2018-04-08T10:06:13.615Z,48.80
2018-04-08T10:08:41.126Z,48.00
2018-04-08T10:11:09.399Z,47.30
2018-04-08T10:13:36.902Z,47.30
2018-04-08T10:16:04.421Z,47.50
2018-04-08T10:18:32.700Z,46.40
2018-04-08T10:21:00.967Z,45.60
2018-04-08T10:23:28.484Z,45.60
2018-04-08T10:25:55.983Z,45.20
2018-04-08T10:28:23.481Z,45.60
2018-04-08T10:30:51.048Z,45.90
2018-04-08T10:33:18.559Z,46.00
2018-04-08T10:35:46.084Z,46.10
2018-04-08T10:38:13.583Z,45.90
2018-04-08T10:40:41.858Z,45.70
2018-04-08T10:43:09.361Z,45.70
2018-04-08T10:45:36.887Z,44.40
2018-04-08T10:48:05.518Z,44.30
2018-04-08T10:50:33.022Z,44.30
2018-04-08T10:53:01.305Z,43.40
2018-04-08T10:55:29.571Z,42.50
2018-04-08T10:57:57.889Z,42.40
2018-04-08T11:00:25.395Z,42.10
2018-04-08T11:02:53.676Z,41.90
2018-04-08T11:05:21.290Z,41.80
2018-04-08T11:07:48.807Z,42.30
2018-04-08T11:10:17.132Z,42.70
2018-04-08T11:12:45.396Z,40.80
2018-04-08T11:15:12.912Z,40.90
2018-04-08T11:17:40.403Z,41.30
2018-04-08T11:20:07.915Z,38.90
2018-04-08T11:22:35.425Z,41.30
2018-04-08T11:25:02.956Z,39.20
2018-04-08T11:27:31.239Z,39.30
2018-04-08T11:29:59.519Z,38.70
2018-04-08T11:32:27.784Z,37.80
2018-04-08T11:34:56.051Z,38.30
2018-04-08T11:37:24.337Z,37.50
2018-04-08T11:39:52.615Z,39.10
2018-04-08T11:42:23.060Z,39.10
2018-04-08T11:44:50.635Z,39.00
2018-04-08T11:47:18.139Z,37.70
2018-04-08T11:49:46.112Z,36.90
2018-04-08T11:52:13.624Z,37.60
2018-04-08T11:54:41.147Z,36.70
2018-04-08T11:57:09.414Z,38.10
2018-04-08T11:59:36.928Z,38.00
2018-04-08T12:02:04.453Z,38.20
2018-04-08T12:04:32.732Z,37.40
2018-04-08T12:07:01.018Z,37.20
2018-04-08T12:09:28.527Z,37.10
2018-04-08T12:11:56.048Z,37.50
2018-04-08T12:14:23.589Z,38.80
2018-04-08T12:16:51.103Z,36.30
2018-04-08T12:19:18.618Z,36.90
2018-04-08T12:21:46.136Z,36.00
2018-04-08T12:24:13.631Z,36.20
2018-04-08T12:26:53.027Z,36.60
2018-04-08T12:29:20.550Z,35.30
2018-04-08T12:31:48.095Z,36.30
2018-04-08T12:34:15.595Z,36.60
2018-04-08T12:36:43.144Z,35.70
2018-04-08T12:39:10.642Z,36.50
2018-04-08T12:41:38.914Z,36.30
2018-04-08T12:44:07.203Z,34.90
2018-04-08T12:46:35.471Z,34.80
2018-04-08T12:49:03.739Z,34.30
2018-04-08T12:51:32.014Z,34.40
2018-04-08T12:54:00.287Z,33.50
2018-04-08T12:56:27.785Z,33.50
2018-04-08T12:58:55.302Z,33.60
2018-04-08T13:01:23.578Z,34.40
2018-04-08T13:03:51.870Z,34.70
2018-04-08T13:06:20.147Z,33.40
2018-04-08T13:08:48.410Z,33.20
2018-04-08T13:11:16.696Z,33.50
2018-04-08T13:13:44.967Z,32.50
2018-04-08T13:16:13.236Z,33.10
2018-04-08T13:18:40.740Z,33.00
2018-04-08T13:21:08.255Z,31.90
2018-04-08T13:23:35.752Z,31.30
2018-04-08T13:26:03.270Z,31.30
2018-04-08T13:28:30.772Z,32.00
2018-04-08T13:30:58.271Z,31.80
2018-04-08T13:33:25.857Z,29.50
2018-04-08T13:35:54.124Z,30.30
2018-04-08T13:38:21.631Z,30.30
2018-04-08T13:40:49.127Z,30.40
2018-04-08T13:43:16.643Z,29.90
2018-04-08T13:45:44.155Z,28.60
2018-04-08T13:48:14.642Z,29.40
2018-04-08T13:50:42.152Z,29.40
2018-04-08T13:53:10.415Z,31.10
2018-04-08T13:55:37.916Z,30.50
2018-04-08T13:58:05.423Z,30.60
2018-04-08T14:00:32.956Z,29.30
2018-04-08T14:03:00.455Z,29.40
2018-04-08T14:05:28.723Z,29.60
2018-04-08T14:07:57.735Z,28.30
2018-04-08T14:10:26.020Z,29.00
2018-04-08T14:12:54.295Z,29.10
2018-04-08T14:15:22.566Z,29.00
2018-04-08T14:17:50.845Z,28.40
2018-04-08T14:20:19.127Z,28.00
2018-04-08T14:22:47.391Z,28.70
2018-04-08T14:25:15.659Z,26.60
2018-04-08T14:27:43.160Z,26.60
2018-04-08T14:30:10.669Z,28.10
2018-04-08T14:32:38.175Z,26.60
2018-04-08T14:35:05.682Z,27.10
2018-04-08T14:37:33.188Z,27.00
2018-04-08T14:40:00.686Z,27.30
2018-04-08T14:42:28.194Z,27.00
2018-04-08T14:44:55.694Z,26.90
2018-04-08T14:47:23.202Z,27.00
2018-04-08T14:49:52.028Z,26.00
2018-04-08T14:52:19.554Z,25.90
2018-04-08T14:54:47.058Z,25.10
2018-04-08T14:57:14.563Z,24.20
2018-04-08T14:59:42.865Z,24.30
2018-04-08T15:02:11.107Z,23.70
2018-04-08T15:04:39.402Z,24.00
2018-04-08T15:07:07.896Z,23.20
2018-04-08T15:09:36.251Z,23.30
2018-04-08T15:12:04.514Z,23.80
2018-04-08T15:14:32.014Z,23.80
2018-04-08T15:16:59.511Z,22.70
2018-04-08T15:19:27.008Z,22.30
2018-04-08T15:21:55.282Z,22.50
2018-04-08T15:24:23.546Z,23.60
2018-04-08T15:26:51.828Z,28.20
2018-04-08T15:29:20.094Z,24.90
2018-04-08T15:31:48.368Z,23.70
2018-04-08T15:34:17.379Z,21.60
2018-04-08T15:36:45.655Z,20.10
2018-04-08T15:39:13.919Z,19.50
2018-04-08T15:41:41.420Z,19.50
2018-04-08T15:44:08.934Z,17.70
2018-04-08T15:46:36.489Z,17.50
2018-04-08T15:49:03.994Z,18.60
2018-04-08T15:51:31.572Z,20.30
2018-04-08T15:53:59.788Z,17.30
2018-04-08T15:56:27.288Z,17.20
2018-04-08T15:58:54.785Z,19.80
2018-04-08T16:01:22.280Z,16.20
2018-04-08T16:03:50.608Z,16.60
2018-04-08T16:06:18.120Z,16.60
2018-04-08T16:08:46.396Z,17.60
2018-04-08T16:11:14.667Z,17.30
2018-04-08T16:13:42.203Z,17.20
2018-04-08T16:16:09.713Z,16.70
2018-04-08T16:18:37.235Z,21.10
2018-04-08T16:21:05.520Z,20.20
2018-04-08T16:23:33.791Z,23.00
2018-04-08T16:26:02.087Z,21.80
2018-04-08T16:28:29.582Z,21.80
2018-04-08T16:30:57.103Z,18.50
2018-04-08T16:33:24.647Z,23.00
2018-04-08T16:35:52.935Z,27.90
2018-04-08T16:38:20.467Z,27.90
2018-04-08T16:40:47.975Z,23.50
2018-04-08T16:43:15.486Z,22.90
2018-04-08T16:45:43.770Z,19.10
2018-04-08T16:48:12.054Z,23.00
2018-04-08T16:50:40.335Z,22.80
2018-04-08T16:53:08.611Z,22.00
2018-04-08T16:55:36.883Z,21.50
2018-04-08T16:58:05.158Z,19.40
2018-04-08T17:00:33.426Z,20.60
2018-04-08T17:03:01.703Z,18.90
2018-04-08T17:05:29.986Z,19.60
2018-04-08T17:07:58.267Z,20.70
2018-04-08T17:10:26.531Z,22.10
2018-04-08T17:12:54.815Z,23.20
2018-04-08T17:15:23.085Z,24.40
2018-04-08T17:17:51.356Z,25.80
2018-04-08T17:20:18.852Z,25.80
2018-04-08T17:22:46.371Z,27.40
2018-04-08T17:25:13.873Z,28.20
2018-04-08T17:27:41.406Z,29.10
2018-04-08T17:30:09.696Z,30.90
2018-04-08T17:32:37.213Z,30.80
2018-04-08T17:35:04.738Z,31.70
2018-04-08T17:37:32.248Z,32.20
2018-04-08T17:40:00.525Z,33.30
2018-04-08T17:42:28.809Z,34.20
2018-04-08T17:44:57.079Z,34.90
2018-04-08T17:47:25.338Z,35.30
2018-04-08T17:49:52.851Z,35.30
2018-04-08T17:52:20.347Z,35.70
2018-04-08T17:54:48.701Z,35.80
2018-04-08T17:57:17.034Z,36.60
2018-04-08T17:59:45.318Z,36.90
2018-04-08T18:02:13.583Z,37.10
2018-04-08T18:04:41.861Z,37.60
2018-04-08T18:07:10.140Z,37.90
2018-04-08T18:09:38.395Z,38.00
2018-04-08T18:12:05.907Z,37.90
2018-04-08T18:14:33.463Z,38.20
2018-04-08T18:17:00.964Z,38.40
2018-04-08T18:19:29.969Z,38.60
2018-04-08T18:21:57.483Z,38.50
2018-04-08T18:24:24.994Z,38.90
2018-04-08T18:26:53.453Z,39.10
2018-04-08T18:29:21.719Z,39.20
2018-04-08T18:31:49.248Z,39.20
2018-04-08T18:34:16.764Z,39.30
2018-04-08T18:36:45.029Z,39.40
2018-04-08T18:39:12.522Z,39.40
2018-04-08T18:41:40.787Z,39.60
2018-04-08T18:44:09.051Z,39.60
2018-04-08T18:46:37.314Z,40.00
2018-04-08T18:49:06.350Z,39.70
2018-04-08T18:51:33.867Z,39.60
2018-04-08T18:54:01.367Z,39.60
2018-04-08T18:56:28.869Z,39.80
2018-04-08T18:58:56.380Z,39.80
2018-04-08T19:01:24.636Z,39.70
2018-04-08T19:03:52.903Z,39.70
2018-04-08T19:06:21.175Z,39.80
2018-04-08T19:08:49.542Z,39.90
2018-04-08T19:11:17.050Z,39.90
2018-04-08T19:13:44.556Z,40.00
2018-04-08T19:16:12.079Z,39.90
2018-04-08T19:18:39.596Z,40.10
2018-04-08T19:21:08.652Z,40.30
2018-04-08T19:23:36.111Z,40.20
2018-04-08T19:26:03.623Z,40.30
2018-04-08T19:28:31.902Z,40.50
2018-04-08T19:31:00.163Z,40.50
2018-04-08T19:33:28.430Z,40.50
2018-04-08T19:35:56.694Z,41.00
2018-04-08T19:38:24.191Z,40.50
2018-04-08T19:40:52.452Z,40.80
2018-04-08T19:43:20.726Z,40.60
2018-04-08T19:45:49.006Z,40.70
2018-04-08T19:48:17.319Z,40.80
2018-04-08T19:50:44.808Z,40.70
2018-04-08T19:53:12.307Z,40.70
2018-04-08T19:55:40.580Z,40.70
2018-04-08T19:58:08.836Z,41.10
2018-04-08T20:00:36.327Z,41.00
2018-04-08T20:03:03.830Z,41.00
2018-04-08T20:05:31.325Z,41.10
2018-04-08T20:07:59.596Z,41.10
2018-04-08T20:10:27.104Z,41.10
2018-04-08T20:12:54.591Z,41.00
2018-04-08T20:15:22.109Z,41.30
2018-04-08T20:17:49.630Z,41.20
2018-04-08T20:20:17.146Z,41.20
2018-04-08T20:22:44.666Z,41.30
2018-04-08T20:25:12.184Z,41.40
2018-04-08T20:27:39.680Z,41.50
2018-04-08T20:30:07.938Z,41.60
2018-04-08T20:32:36.220Z,41.00
2018-04-08T20:35:04.483Z,41.50
2018-04-08T20:37:32.006Z,41.40
2018-04-08T20:39:59.528Z,41.60
2018-04-08T20:42:27.798Z,41.70
2018-04-08T20:44:56.065Z,41.70
2018-04-08T20:47:24.318Z,41.60
2018-04-08T20:49:51.820Z,41.60
2018-04-08T20:52:19.316Z,41.50
2018-04-08T20:54:46.811Z,41.50
2018-04-08T20:57:15.083Z,41.50
2018-04-08T20:59:42.580Z,41.50
2018-04-08T21:02:10.075Z,41.60
2018-04-08T21:04:37.582Z,41.60
2018-04-08T21:07:05.856Z,41.80
2018-04-08T21:09:34.127Z,41.80
2018-04-08T21:12:02.392Z,41.90
2018-04-08T21:14:30.715Z,42.50
2018-04-08T21:16:58.272Z,41.80
2018-04-08T21:19:25.791Z,41.90
2018-04-08T21:21:54.073Z,42.00
2018-04-08T21:24:22.379Z,42.00
2018-04-08T21:26:49.876Z,42.00
2018-04-08T21:29:17.372Z,42.10
2018-04-08T21:31:45.639Z,41.80
2018-04-08T21:34:13.899Z,41.50
2018-04-08T21:36:41.407Z,41.50
2018-04-08T21:39:08.903Z,41.60
2018-04-08T21:41:36.431Z,41.90
2018-04-08T21:44:03.947Z,42.10
2018-04-08T21:46:32.232Z,42.50
2018-04-08T21:49:00.507Z,41.70
2018-04-08T21:51:28.822Z,41.80
2018-04-08T21:53:57.066Z,41.80
2018-04-08T21:56:25.327Z,42.00
2018-04-08T21:58:53.611Z,42.30
2018-04-08T22:01:21.884Z,42.70
2018-04-08T22:03:49.398Z,42.60
2018-04-08T22:13:04.454Z,43.10
2018-04-08T22:15:31.953Z,43.10
2018-04-08T22:17:59.447Z,43.00
2018-04-08T22:20:26.971Z,42.80
2018-04-08T22:22:54.478Z,42.80
2018-04-08T22:25:21.975Z,42.90
2018-04-08T22:27:49.470Z,43.10
2018-04-08T22:30:16.986Z,43.10
2018-04-08T22:32:44.488Z,43.30
2018-04-08T22:35:11.982Z,43.40
2018-04-08T22:37:40.298Z,43.90
2018-04-08T22:40:07.795Z,43.80
2018-04-08T22:42:35.302Z,44.20
2018-04-08T22:45:02.812Z,44.40
2018-04-08T22:47:30.311Z,44.30
2018-04-08T22:49:58.570Z,44.60
2018-04-08T22:52:26.851Z,44.80
2018-04-08T22:54:55.122Z,45.00
2018-04-08T22:57:23.403Z,45.00
2018-04-08T22:59:51.715Z,45.70
2018-04-08T23:02:19.207Z,45.00
2018-04-08T23:04:46.729Z,45.20
2018-04-08T23:07:14.239Z,45.10
2018-04-08T23:09:41.759Z,45.30
2018-04-08T23:12:09.288Z,45.20
2018-04-08T23:14:36.783Z,45.20
2018-04-08T23:17:04.284Z,45.30
2018-04-08T23:19:32.554Z,45.70
2018-04-08T23:22:00.071Z,45.60
2018-04-08T23:24:27.617Z,45.70
2018-04-08T23:26:55.108Z,45.70
2018-04-08T23:29:22.603Z,45.80
2018-04-08T23:31:50.883Z,45.80
2018-04-08T23:34:19.145Z,45.80
2018-04-08T23:36:47.406Z,46.60
2018-04-08T23:39:14.910Z,45.90
2018-04-08T23:41:42.410Z,45.90
2018-04-08T23:44:09.920Z,45.80
2018-04-08T23:46:37.434Z,45.80
2018-04-08T23:49:04.936Z,45.80
2018-04-08T23:51:32.426Z,45.50
2018-04-08T23:53:59.947Z,45.50
2018-04-08T23:56:28.207Z,45.20
2018-04-08T23:58:55.695Z,45.10
